Decoded Metar for PATO (PORTAGE GLACIER in AK, USA) (IATA:POR) | Meteo·Mobile Aviation Weather
aviador You're here:

PATO Decoded Metar

PORTAGE GLACIER in AK, USA
Report Time2018-10-20 12:53:00
UTC Time2018-10-20 13:07:18
Flight Rules mvfr MVFR
Wind100° at 04 kt
W.Rank100° ranks 2
Current wind is below 100° avg. (10.2)
Visibility9999 m
Phenomena:N/A
Clouds:Few 001 Hf
Broken 023 Hf
Overcast 029 Hf
Expected CloudBase > 400 ft AGL from Temp-Dew spread
Ceiling2,300 ft
Temp03°C (ISA -12)
Dew Point02°C (93% RH)
AAT-0.1°C
QNH999 hPa
Density Alt-755 ft
Elevation102 ft
Report Wrong Elevation
Raw Report
PATO 201253Z AUTO 10004KT 10SM FEW001 BKN023 OVC029 03/02 A2949
RMK AO2 SLP985 T00280022 TSNO=

Extra information for PATO:More info

Metar Taf Metar & Taf Last 4 Metars F.Rules Stats Wind Profile Meteogram Temp Stats Airport Information Weather charts Add Link Nearby VenuesMetar ALERT Operation Metar Decoded Social comments

AIRNAV info for PATO